• Join FlightAware (Why Join?)
  • Login
  • US Flag 
03:48AM EDT


 

Airport Tracker/Info


-or-


 

Live Flight TrackerFlight Track Log ✈ EJA929 ✈ 20-Sep-2013 ✈ KADS - KLIT

Flight Track Log - Related Links

Times and Time Zones

All times are in EDT time to prevent confusion due to time zone crossing. See the EJA929 flight status page for this flight to view local times or setup timezone preferences in your user account.

Time Position Orientation Groundspeed Altitude Reporting Facility
EDT Latitude Longitude Course Direction KTS MPH feet Rate Location/Type
09:10AM 32.9833 -96.8333 23° Northeast 166 191 1,000  Level Dallas / Fort Worth TRACON
09:11AM 33.0167 -96.8167 23° Northeast 191 220 3,100 2,520 Climbing Dallas / Fort Worth TRACON
09:13AM 33.0297 -96.6997 82° East 247 284 8,300 3,180 Climbing Fort Worth Center
09:14AM 33.0436 -96.6056 80° East 275 316 11,600 2,400 Climbing Fort Worth Center
09:15AM 33.0597 -96.4864 81° East 337 388 13,200 1,620 Climbing Fort Worth Center
09:16AM 33.0775 -96.3697 80° East 381 438 14,900 1,680 Climbing Fort Worth Center
09:17AM 33.1097 -96.2403 73° East 381 438 16,600 1,260 Climbing Fort Worth Center
09:18AM 33.1442 -96.1283 70° East 387 445 17,500 1,020 Climbing Fort Worth Center
09:19AM 33.1844 -95.9861 71° East 393 452 18,700 1,260 Climbing Fort Worth Center
09:20AM 33.2206 -95.8739 69° East 405 466 20,100 1,500 Climbing Fort Worth Center
09:21AM 33.2606 -95.7317 71° East 412 474 21,700 1,380 Climbing Fort Worth Center
09:22AM 33.2964 -95.6117 70° East 412 474 22,900 600 Climbing Fort Worth Center
09:23AM 33.3400 -95.4567 71° East 424 488 23,000  Climbing Fort Worth Center
09:24AM 33.3814 -95.3064 72° East 445 512 23,000  Level Fort Worth Center
09:25AM 33.4225 -95.1536 72° East 471 542 23,000  Level Fort Worth Center
09:26AM 33.4678 -95.0031 70° East 477 549 23,000  Level Fort Worth Center
09:27AM 33.5108 -94.8525 71° East 477 549 23,000  Level Fort Worth Center
09:28AM 33.5514 -94.7017 72° East 477 549 23,000  Level Fort Worth Center
09:29AM 33.5922 -94.5658 70° East 477 549 23,000  Level Fort Worth Center
09:30AM 33.6347 -94.4197 71° East 467 537 23,000  Level Fort Worth Center
09:31AM 33.6981 -94.2803 61° Northeast 467 537 23,000  Level Fort Worth Center
09:32AM 33.7678 -94.1478 58° Northeast 462 532 23,000  Level Fort Worth Center
09:33AM 33.8372 -94.0128 58° Northeast 467 537 23,000 -240 Level Fort Worth Center
09:35AM 33.9744 -93.7436 58° Northeast 531 611 22,400 -1,080 Descending Memphis Center
09:36AM 34.0406 -93.6108 59° Northeast 489 563 20,000 -1,740 Descending Memphis Center
09:37AM 34.1064 -93.4853 58° Northeast 456 525 19,000 -1,200 Descending Memphis Center
09:38AM 34.1681 -93.3619 59° Northeast 436 502 17,600 -2,220 Descending Memphis Center
09:39AM 34.2269 -93.2486 58° Northeast 424 488 14,600 -2,700 Descending Memphis Center
09:39AM 34.2250 -93.2486 180° South 407 468 14,600 -2,400 Level Memphis Center
09:40AM 34.2794 -93.1397 59° Northeast 395 455 12,200 -2,700 Descending Memphis Center
09:40AM 34.2861 -93.1250 61° Northeast 369 425 11,900 -1,320 Descending Memphis Center
09:41AM 34.3342 -93.0308 58° Northeast 376 433 10,900 -1,200 Descending Memphis Center
09:41AM 34.3428 -93.0111 62° Northeast 376 433 10,600 -840 Descending Memphis Center
09:42AM 34.3819 -92.9317 59° Northeast 358 412 10,100 -660 Descending Memphis Center
09:42AM 34.3931 -92.9069 61° Northeast 290 334 9,900 -1,320 Descending Memphis Center
09:43AM 34.4233 -92.8497 57° Northeast 316 364 8,800 -1,800 Descending Memphis Center
09:43AM 34.4386 -92.8200 58° Northeast 265 305 7,900 -1,800 Descending Memphis Center
09:44AM 34.4603 -92.7753 60° Northeast 278 320 7,000 -1,740 Descending Memphis Center
09:44AM 34.4778 -92.7406 59° Northeast 269 310 6,200 -1,320 Descending Memphis Center
09:45AM 34.4994 -92.6983 58° Northeast 265 305 5,700 -1,080 Descending Memphis Center
09:45AM 34.5189 -92.6611 58° Northeast 255 293 5,000 -1,020 Descending Memphis Center
09:46AM 34.5361 -92.6236 61° Northeast 253 291 4,700 -1,020 Descending Memphis Center
09:46AM 34.5536 -92.5839 62° Northeast 254 292 4,000 -1,140 Descending Memphis Center
09:47AM 34.5708 -92.5514 57° Northeast 248 285 3,600 -720 Descending Memphis Center
09:47AM 34.5861 -92.5064 68° East 251 289 3,300 -540 Descending Memphis Center
09:48AM 34.6014 -92.4767 58° Northeast 243 280 3,100 -300 Descending Memphis Center
09:48AM 34.6147 -92.4339 69° East 233 268 3,000 -120 Descending Memphis Center
09:49AM 34.6297 -92.4092 54° Northeast 238 274 3,000 -540 Level Memphis Center
09:49AM 34.6469 -92.3617 66° East 226 260 2,500 -840 Descending Memphis Center
09:50AM 34.6558 -92.3417 62° Northeast 232 267 2,200 -900 Descending Memphis Center
09:50AM 34.6686 -92.3117 63° Northeast 176 203 1,600 -840 Descending Memphis Center
09:51AM 34.6836 -92.2917 48° Northeast 205 236 1,400 -600 Descending Memphis Center
09:51AM 34.6986 -92.2719 47° Northeast 138 159 1,000 -540 Descending Memphis Center
09:52AM 34.7050 -92.2619 52° Northeast 172 198 900 -300 Descending Memphis Center